createdAt,value
2023-05-05T00:00:10.131Z,0.00
2023-05-05T00:00:36.811Z,0.00
2023-05-05T00:00:57.437Z,0.00
2023-05-05T00:01:28.785Z,0.00
2023-05-05T00:02:01.607Z,0.00
2023-05-05T00:02:33.001Z,0.00
2023-05-05T00:03:04.965Z,0.00
2023-05-05T00:03:37.092Z,0.00
2023-05-05T00:04:09.302Z,0.00
2023-05-05T00:04:36.246Z,0.00
2023-05-05T00:04:57.242Z,0.00
2023-05-05T00:05:29.284Z,0.00
2023-05-05T00:06:01.502Z,0.00
2023-05-05T00:06:32.727Z,0.00
2023-05-05T00:07:04.750Z,0.00
2023-05-05T00:07:36.864Z,0.00
2023-05-05T00:08:08.723Z,0.00
2023-05-05T00:08:36.216Z,0.00
2023-05-05T00:08:57.024Z,0.00
2023-05-05T00:09:28.755Z,0.00
2023-05-05T00:10:02.457Z,0.00
2023-05-05T00:10:32.780Z,0.00
2023-05-05T00:11:04.818Z,0.00
2023-05-05T00:11:37.578Z,0.00
2023-05-05T00:12:08.794Z,0.00
2023-05-05T00:12:36.458Z,0.00
2023-05-05T00:12:57.065Z,0.00
2023-05-05T00:13:28.826Z,0.00
2023-05-05T00:14:01.499Z,0.00
2023-05-05T00:14:33.193Z,0.00
2023-05-05T00:15:06.541Z,0.00
2023-05-05T00:15:37.175Z,0.00
2023-05-05T00:16:08.719Z,0.00
2023-05-05T00:16:37.242Z,0.00
2023-05-05T00:16:57.319Z,0.00
2023-05-05T00:17:28.835Z,0.00
2023-05-05T00:18:01.835Z,0.00
2023-05-05T00:18:32.824Z,0.00
2023-05-05T00:19:06.020Z,0.00
2023-05-05T00:19:37.215Z,0.00
2023-05-05T00:20:09.338Z,0.00
2023-05-05T00:20:36.345Z,0.00
2023-05-05T00:20:57.374Z,0.00
2023-05-05T00:21:28.781Z,0.00
2023-05-05T00:22:01.637Z,0.00
2023-05-05T00:22:32.712Z,0.00
2023-05-05T00:23:04.855Z,0.00
2023-05-05T00:23:36.859Z,0.00
2023-05-05T00:24:08.673Z,0.00
2023-05-05T00:24:36.428Z,0.00
2023-05-05T00:24:57.018Z,0.00
2023-05-05T00:25:29.307Z,0.00
2023-05-05T00:26:01.378Z,0.00
2023-05-05T00:26:32.847Z,0.00
2023-05-05T00:27:04.826Z,0.00
2023-05-05T00:27:38.893Z,0.00
2023-05-05T00:28:08.648Z,0.00
2023-05-05T00:28:36.858Z,0.00
2023-05-05T00:28:57.269Z,0.00
2023-05-05T00:29:28.750Z,0.00
2023-05-05T00:30:03.688Z,0.00
2023-05-05T00:30:32.908Z,0.00
2023-05-05T00:31:04.844Z,0.00
2023-05-05T00:31:37.020Z,0.00
2023-05-05T00:32:08.790Z,0.00
2023-05-05T00:32:36.334Z,0.00
2023-05-05T00:32:57.013Z,0.00
2023-05-05T00:33:28.834Z,0.00
2023-05-05T00:34:01.421Z,0.00
2023-05-05T00:34:32.754Z,0.00
2023-05-05T00:35:05.901Z,0.00
2023-05-05T00:35:37.190Z,0.00
2023-05-05T00:36:08.732Z,0.00
2023-05-05T00:36:37.402Z,0.00
2023-05-05T00:36:57.289Z,0.00
2023-05-05T00:37:28.926Z,0.00
2023-05-05T00:38:01.471Z,0.00
2023-05-05T00:38:32.700Z,0.00
2023-05-05T00:39:04.755Z,0.00
2023-05-05T00:39:36.830Z,0.00
2023-05-05T00:40:09.454Z,0.00
2023-05-05T00:40:36.251Z,0.00
2023-05-05T00:40:57.588Z,0.00
2023-05-05T00:41:29.110Z,0.00
2023-05-05T00:42:01.404Z,0.00
2023-05-05T00:42:32.822Z,0.00
2023-05-05T00:43:04.802Z,0.00
2023-05-05T00:43:21.324Z,0.00
2023-05-05T00:43:42.207Z,0.00
2023-05-05T00:44:08.769Z,0.00
2023-05-05T00:44:36.229Z,0.00
2023-05-05T00:44:57.095Z,0.00
2023-05-05T00:45:30.141Z,0.00
2023-05-05T00:46:01.305Z,0.00
2023-05-05T00:46:32.779Z,0.00
2023-05-05T00:47:04.753Z,0.00
2023-05-05T00:47:21.604Z,0.00
2023-05-05T00:47:42.387Z,0.00
2023-05-05T00:48:08.812Z,0.00
2023-05-05T00:48:37.141Z,0.00
2023-05-05T00:48:57.008Z,0.00
2023-05-05T00:49:28.912Z,0.00
2023-05-05T00:50:02.465Z,0.00
2023-05-05T00:50:33.159Z,0.00
2023-05-05T00:51:04.915Z,0.00
2023-05-05T00:51:36.966Z,0.00
2023-05-05T00:52:08.852Z,0.00
2023-05-05T00:52:36.306Z,0.00
2023-05-05T00:52:57.232Z,0.00
2023-05-05T00:53:28.763Z,0.00
2023-05-05T00:54:01.413Z,0.00
2023-05-05T00:54:32.763Z,0.00
2023-05-05T00:55:06.037Z,0.00
2023-05-05T00:55:21.353Z,0.00
2023-05-05T00:55:42.694Z,0.00
2023-05-05T00:56:08.827Z,0.00
2023-05-05T00:56:36.725Z,0.00
2023-05-05T00:56:57.101Z,0.00
2023-05-05T00:57:28.797Z,0.00
2023-05-05T00:58:01.404Z,0.00
2023-05-05T00:58:32.856Z,0.00
2023-05-05T00:59:04.758Z,0.00
2023-05-05T00:59:21.673Z,0.00
2023-05-05T00:59:42.269Z,0.00
2023-05-05T01:00:10.006Z,0.00
2023-05-05T01:00:36.967Z,0.00
2023-05-05T01:00:57.552Z,0.00
2023-05-05T01:01:28.948Z,0.00
2023-05-05T01:02:01.744Z,0.00
2023-05-05T01:02:32.993Z,0.00
2023-05-05T01:03:04.905Z,0.00
2023-05-05T01:03:21.404Z,0.00
2023-05-05T01:03:42.402Z,0.00
2023-05-05T01:04:08.704Z,0.00
2023-05-05T01:04:36.298Z,0.00
2023-05-05T01:04:57.068Z,0.00
2023-05-05T01:07:03.640Z,0.00
2023-05-05T01:07:23.448Z,0.00
2023-05-05T01:07:48.840Z,0.00
2023-05-05T01:08:17.098Z,0.00
2023-05-05T01:08:47.937Z,0.00
2023-05-05T01:09:13.834Z,0.00
2023-05-05T01:09:47.237Z,0.00
2023-05-05T01:10:28.352Z,0.00
2023-05-05T01:11:00.377Z,0.00
2023-05-05T01:11:42.414Z,0.00
2023-05-05T01:12:13.230Z,0.00
2023-05-05T01:12:52.461Z,0.00
2023-05-05T01:13:34.352Z,0.00
2023-05-05T01:13:59.888Z,0.00
2023-05-05T01:14:32.889Z,0.00
2023-05-05T01:14:48.591Z,0.00
2023-05-05T01:15:05.313Z,0.00
2023-05-05T01:15:19.830Z,0.00
2023-05-05T01:15:42.035Z,0.00
2023-05-05T01:16:08.178Z,0.00
2023-05-05T01:16:36.206Z,0.00
2023-05-05T01:16:55.894Z,0.00
2023-05-05T01:17:28.032Z,0.00
2023-05-05T01:18:00.625Z,0.00
2023-05-05T01:18:31.927Z,0.00
2023-05-05T01:19:03.441Z,0.00
2023-05-05T01:19:20.419Z,0.00
2023-05-05T01:19:41.593Z,0.00
2023-05-05T01:20:09.026Z,0.00
2023-05-05T01:20:35.439Z,0.00
2023-05-05T01:20:56.618Z,0.00
2023-05-05T01:21:27.825Z,0.00
2023-05-05T01:21:59.760Z,0.00
2023-05-05T01:22:32.234Z,0.00
2023-05-05T01:23:03.517Z,0.00
2023-05-05T01:23:35.928Z,0.00
2023-05-05T01:24:07.928Z,0.00
2023-05-05T01:24:34.839Z,0.00
2023-05-05T01:24:55.390Z,0.00
2023-05-05T01:25:28.220Z,0.00
2023-05-05T01:25:59.888Z,0.00
2023-05-05T01:26:31.599Z,0.00
2023-05-05T01:27:03.972Z,0.00
2023-05-05T01:27:20.208Z,0.00
2023-05-05T01:27:41.292Z,0.00
2023-05-05T01:28:07.871Z,0.00
2023-05-05T01:28:35.223Z,0.00
2023-05-05T01:28:55.737Z,0.00
2023-05-05T01:29:27.823Z,0.00
2023-05-05T01:29:59.872Z,0.00
2023-05-05T01:30:32.493Z,0.00
2023-05-05T01:31:03.440Z,0.00
2023-05-05T01:31:20.009Z,0.00
2023-05-05T01:31:41.455Z,0.00
2023-05-05T01:32:07.944Z,0.00
2023-05-05T01:32:35.386Z,0.00
2023-05-05T01:32:56.044Z,0.00
2023-05-05T01:33:27.484Z,0.00
2023-05-05T01:34:00.628Z,0.00
2023-05-05T01:34:31.891Z,0.00
2023-05-05T01:35:04.836Z,0.00
2023-05-05T01:35:20.554Z,0.00
2023-05-05T01:35:41.950Z,0.00
2023-05-05T01:36:08.062Z,0.00
2023-05-05T01:36:35.051Z,0.00
2023-05-05T01:36:55.664Z,0.00
2023-05-05T01:37:28.142Z,0.00
2023-05-05T01:38:00.787Z,0.00
2023-05-05T01:38:32.254Z,0.00
2023-05-05T01:39:04.149Z,0.00
2023-05-05T01:39:28.830Z,0.00
2023-05-05T01:39:47.948Z,0.00
2023-05-05T01:40:11.675Z,0.00
2023-05-05T01:40:37.552Z,0.00
2023-05-05T01:40:58.411Z,0.00
2023-05-05T01:41:29.935Z,0.00
2023-05-05T01:42:02.051Z,0.00
2023-05-05T01:42:32.997Z,0.00
2023-05-05T01:43:05.048Z,0.00
2023-05-05T01:43:21.290Z,0.00
2023-05-05T01:43:42.383Z,0.00
2023-05-05T01:44:09.444Z,0.00
2023-05-05T01:44:36.252Z,0.00
2023-05-05T01:44:56.921Z,0.00
2023-05-05T01:45:29.796Z,0.00
2023-05-05T01:46:01.280Z,0.00
2023-05-05T01:46:33.041Z,0.00
2023-05-05T01:47:05.074Z,0.00
2023-05-05T01:47:21.337Z,0.00
2023-05-05T01:47:42.350Z,0.00
2023-05-05T01:48:08.977Z,0.00
2023-05-05T01:48:36.292Z,0.00
2023-05-05T01:48:56.869Z,0.00
2023-05-05T01:49:28.882Z,0.00
2023-05-05T01:50:02.711Z,0.00
2023-05-05T01:50:33.043Z,0.00
2023-05-05T01:51:05.271Z,0.00
2023-05-05T01:51:36.840Z,0.00
2023-05-05T01:52:08.958Z,0.00
2023-05-05T01:52:36.279Z,0.00
2023-05-05T01:52:56.925Z,0.00
2023-05-05T01:53:28.948Z,0.00
2023-05-05T01:54:01.716Z,0.00
2023-05-05T01:54:32.993Z,0.00
2023-05-05T01:55:06.354Z,0.00
2023-05-05T01:55:21.279Z,0.00
2023-05-05T01:55:42.781Z,0.00
2023-05-05T01:56:08.985Z,0.00
2023-05-05T01:56:36.815Z,0.00
2023-05-05T01:56:56.832Z,0.00
2023-05-05T01:57:28.977Z,0.00
2023-05-05T01:58:01.653Z,0.00
2023-05-05T01:58:33.025Z,0.00
2023-05-05T01:59:04.971Z,0.00
2023-05-05T01:59:21.484Z,0.00
2023-05-05T01:59:42.219Z,0.00
2023-05-05T02:00:10.204Z,0.00
2023-05-05T02:00:36.905Z,0.00
2023-05-05T02:00:57.363Z,0.00
2023-05-05T02:01:28.761Z,0.00
2023-05-05T02:02:01.681Z,0.00
2023-05-05T02:02:33.111Z,0.00
2023-05-05T02:03:05.004Z,0.00
2023-05-05T02:03:21.940Z,0.00
2023-05-05T02:03:42.357Z,0.00
2023-05-05T02:04:09.081Z,0.00
2023-05-05T02:04:36.320Z,0.00
2023-05-05T02:04:56.883Z,0.00
2023-05-05T02:05:29.258Z,0.00
2023-05-05T02:06:01.699Z,0.00
2023-05-05T02:06:33.472Z,0.00
2023-05-05T02:07:05.006Z,0.00
2023-05-05T02:07:21.244Z,0.00
2023-05-05T02:07:42.423Z,0.00
2023-05-05T02:08:09.004Z,0.00
2023-05-05T02:08:36.268Z,0.00
2023-05-05T02:08:56.856Z,0.00
2023-05-05T02:09:28.801Z,0.00
2023-05-05T02:10:02.675Z,0.00
2023-05-05T02:10:33.003Z,0.00
2023-05-05T02:11:04.989Z,0.00
2023-05-05T02:11:21.244Z,0.00
2023-05-05T02:11:42.334Z,0.00
2023-05-05T02:12:08.993Z,0.00
2023-05-05T02:12:36.527Z,0.00
2023-05-05T02:12:57.143Z,0.00
2023-05-05T02:13:28.723Z,0.00
2023-05-05T02:14:01.764Z,0.00
2023-05-05T02:14:32.973Z,0.00
2023-05-05T02:15:06.941Z,0.00
2023-05-05T02:15:36.917Z,0.00
2023-05-05T02:16:09.091Z,0.00
2023-05-05T02:16:36.260Z,0.00
2023-05-05T02:16:56.949Z,0.00
2023-05-05T02:17:28.852Z,0.00
2023-05-05T02:18:01.653Z,0.00
2023-05-05T02:18:32.985Z,0.00
2023-05-05T02:19:05.099Z,0.00
2023-05-05T02:19:21.270Z,0.00
2023-05-05T02:19:42.441Z,0.00
2023-05-05T02:20:09.696Z,0.00
2023-05-05T02:20:36.317Z,0.00
2023-05-05T02:20:57.227Z,0.00
2023-05-05T02:21:29.144Z,0.00
2023-05-05T02:22:01.343Z,0.00
2023-05-05T02:22:33.541Z,0.00
2023-05-05T02:23:05.214Z,0.00
2023-05-05T02:23:21.298Z,0.00
2023-05-05T02:23:42.398Z,0.00
2023-05-05T02:24:09.366Z,0.00
2023-05-05T02:24:36.190Z,0.00
2023-05-05T02:24:56.958Z,0.00
2023-05-05T02:25:29.277Z,0.00
2023-05-05T02:26:01.245Z,0.00
2023-05-05T02:26:32.955Z,0.00
2023-05-05T02:27:05.319Z,0.00
2023-05-05T02:27:21.477Z,0.00
2023-05-05T02:27:42.271Z,0.00
2023-05-05T02:28:08.929Z,0.00
2023-05-05T02:28:36.361Z,0.00
2023-05-05T02:28:56.963Z,0.00
2023-05-05T02:29:28.872Z,0.00
2023-05-05T02:30:03.032Z,0.00
2023-05-05T02:30:33.388Z,0.00
2023-05-05T02:31:04.920Z,0.00
2023-05-05T02:31:21.295Z,0.00
2023-05-05T02:31:42.314Z,0.00
2023-05-05T02:32:08.904Z,0.00
2023-05-05T02:32:36.374Z,0.00
2023-05-05T02:32:57.032Z,0.00
2023-05-05T02:33:28.775Z,0.00
2023-05-05T02:34:01.284Z,0.00
2023-05-05T02:34:32.886Z,0.00
2023-05-05T02:35:06.793Z,0.00
2023-05-05T02:35:21.133Z,0.00
2023-05-05T02:35:42.686Z,0.00
2023-05-05T02:36:09.495Z,0.00
2023-05-05T02:36:36.612Z,0.00
2023-05-05T02:36:56.944Z,0.00
2023-05-05T02:37:28.731Z,0.00
2023-05-05T02:38:01.701Z,0.00
2023-05-05T02:38:33.034Z,0.00
2023-05-05T02:39:04.864Z,0.00
2023-05-05T02:39:21.264Z,0.00
2023-05-05T02:39:42.322Z,0.00
2023-05-05T02:40:09.774Z,0.00
2023-05-05T02:40:37.089Z,0.00
2023-05-05T02:40:57.385Z,0.00
2023-05-05T02:41:28.791Z,0.00
2023-05-05T02:42:01.718Z,0.00
2023-05-05T02:42:33.994Z,0.00
2023-05-05T02:43:04.893Z,0.00
2023-05-05T02:43:21.349Z,0.00
2023-05-05T02:43:42.231Z,0.00
2023-05-05T02:44:09.009Z,0.00
2023-05-05T02:44:36.325Z,0.00
2023-05-05T02:44:57.040Z,0.00
2023-05-05T02:45:29.825Z,0.00
2023-05-05T02:46:01.613Z,0.00
2023-05-05T02:46:33.460Z,0.00
2023-05-05T02:47:05.119Z,0.00
2023-05-05T02:47:21.510Z,0.00
2023-05-05T02:47:42.285Z,0.00
2023-05-05T02:48:09.053Z,0.00
2023-05-05T02:48:36.388Z,0.00
2023-05-05T02:48:56.859Z,0.00
2023-05-05T02:49:28.895Z,0.00
2023-05-05T02:50:02.472Z,0.00
2023-05-05T02:50:32.951Z,0.00
2023-05-05T02:51:04.950Z,0.00
2023-05-05T02:51:21.486Z,0.00
2023-05-05T02:51:42.743Z,0.00
2023-05-05T02:52:09.076Z,0.00
2023-05-05T02:52:36.264Z,0.00
2023-05-05T02:52:57.178Z,0.00
2023-05-05T02:53:28.784Z,0.00
2023-05-05T02:54:01.796Z,0.00
2023-05-05T02:54:32.904Z,0.00
2023-05-05T02:55:06.406Z,0.00
2023-05-05T02:55:21.218Z,0.00
2023-05-05T02:55:42.610Z,0.00
2023-05-05T02:56:09.449Z,0.00
2023-05-05T02:56:36.316Z,0.00
2023-05-05T02:56:56.900Z,0.00
2023-05-05T02:57:28.869Z,0.00
2023-05-05T02:58:01.965Z,0.00
2023-05-05T02:58:32.984Z,0.00
2023-05-05T02:59:05.098Z,0.00
2023-05-05T02:59:21.182Z,0.00
2023-05-05T02:59:42.309Z,0.00
2023-05-05T03:00:10.716Z,0.00
2023-05-05T03:00:36.372Z,0.00
2023-05-05T03:00:57.251Z,0.00
2023-05-05T03:01:29.001Z,0.00
2023-05-05T03:02:01.342Z,0.00
2023-05-05T03:02:32.941Z,0.00
2023-05-05T03:03:05.124Z,0.00
2023-05-05T03:03:21.299Z,0.00
2023-05-05T03:03:42.342Z,0.00
2023-05-05T03:04:09.054Z,0.00
2023-05-05T03:04:36.272Z,0.00
2023-05-05T03:04:56.810Z,0.00
2023-05-05T03:05:29.135Z,0.00
2023-05-05T03:06:01.367Z,0.00
2023-05-05T03:06:32.962Z,0.00
2023-05-05T03:07:05.044Z,0.00
2023-05-05T03:07:21.352Z,0.00
2023-05-05T03:07:42.184Z,0.00
2023-05-05T03:08:09.049Z,0.00
2023-05-05T03:08:36.472Z,0.00
2023-05-05T03:08:56.925Z,0.00
2023-05-05T03:09:28.754Z,0.00
2023-05-05T03:10:02.608Z,0.00
2023-05-05T03:10:33.087Z,0.00
2023-05-05T03:11:05.111Z,0.00
2023-05-05T03:11:21.308Z,0.00
2023-05-05T03:11:42.313Z,0.00
2023-05-05T03:12:09.385Z,0.00
2023-05-05T03:12:36.302Z,0.00
2023-05-05T03:12:56.855Z,0.00
2023-05-05T03:13:28.672Z,0.00
2023-05-05T03:14:01.311Z,0.00
2023-05-05T03:14:33.488Z,0.00
2023-05-05T03:15:07.111Z,0.00
2023-05-05T03:15:21.340Z,0.00
2023-05-05T03:15:42.651Z,0.00
2023-05-05T03:16:09.136Z,0.00
2023-05-05T03:16:36.430Z,0.00
2023-05-05T03:16:56.828Z,0.00
2023-05-05T03:17:28.834Z,0.00
2023-05-05T03:18:01.299Z,0.00
2023-05-05T03:18:33.033Z,0.00
2023-05-05T03:19:04.945Z,0.00
2023-05-05T03:19:21.264Z,0.00
2023-05-05T03:19:42.255Z,0.00
2023-05-05T03:20:09.618Z,0.00
2023-05-05T03:20:36.401Z,0.00
2023-05-05T03:20:57.238Z,0.00
2023-05-05T03:21:28.835Z,0.00
2023-05-05T03:22:01.847Z,0.00
2023-05-05T03:22:33.042Z,0.00
2023-05-05T03:23:05.126Z,0.00
2023-05-05T03:23:21.280Z,0.00
2023-05-05T03:23:42.272Z,0.00
2023-05-05T03:24:09.237Z,0.00
2023-05-05T03:24:36.883Z,0.00
2023-05-05T03:24:57.336Z,0.00
2023-05-05T03:25:29.176Z,0.00
2023-05-05T03:26:01.586Z,0.00
2023-05-05T03:26:32.980Z,0.00
2023-05-05T03:27:04.967Z,0.00
2023-05-05T03:27:21.225Z,0.00
2023-05-05T03:27:42.311Z,0.00
2023-05-05T03:28:09.016Z,0.00
2023-05-05T03:28:36.220Z,0.00
2023-05-05T03:28:56.849Z,0.00
2023-05-05T03:29:28.746Z,0.00
2023-05-05T03:30:03.676Z,0.00
2023-05-05T03:30:32.944Z,0.00
2023-05-05T03:31:05.005Z,0.00
2023-05-05T03:31:21.287Z,0.00
2023-05-05T03:31:42.289Z,0.00
2023-05-05T03:32:09.199Z,0.00
2023-05-05T03:32:36.299Z,0.00
2023-05-05T03:32:56.886Z,0.00
2023-05-05T03:33:28.742Z,0.00
2023-05-05T03:34:01.734Z,0.00
2023-05-05T03:34:33.360Z,0.36
2023-05-05T03:35:06.293Z,0.36
2023-05-05T03:35:21.283Z,0.00
2023-05-05T03:35:42.807Z,0.36
2023-05-05T03:36:09.034Z,0.36
2023-05-05T03:36:36.535Z,1.22
2023-05-05T03:36:57.095Z,0.85
2023-05-05T03:37:29.278Z,1.22
2023-05-05T03:38:02.087Z,0.36
2023-05-05T03:38:33.024Z,0.36
2023-05-05T03:39:05.382Z,0.85
2023-05-05T03:39:21.204Z,0.36
2023-05-05T03:39:42.442Z,0.85
2023-05-05T03:40:09.684Z,0.36
2023-05-05T03:40:44.263Z,1.22
2023-05-05T03:40:57.429Z,1.71
2023-05-05T03:41:29.187Z,1.71
2023-05-05T03:42:01.983Z,1.71
2023-05-05T03:42:33.179Z,1.22
2023-05-05T03:43:06.535Z,1.22
2023-05-05T03:43:21.850Z,1.71
2023-05-05T03:43:42.453Z,2.57
2023-05-05T03:44:09.248Z,2.08
2023-05-05T03:44:36.569Z,2.08
2023-05-05T03:44:57.290Z,2.57
2023-05-05T03:45:30.001Z,2.08
2023-05-05T03:46:02.054Z,2.57
2023-05-05T03:46:33.498Z,2.57
2023-05-05T03:47:05.238Z,2.94
2023-05-05T03:47:21.579Z,4.28
2023-05-05T03:47:42.682Z,2.94
2023-05-05T03:48:09.810Z,3.43
2023-05-05T03:48:36.660Z,3.79
2023-05-05T03:48:57.132Z,3.79
2023-05-05T03:49:29.002Z,3.79
2023-05-05T03:50:03.426Z,3.79
2023-05-05T03:50:33.140Z,4.28
2023-05-05T03:51:05.143Z,4.28
2023-05-05T03:51:21.445Z,5.14
2023-05-05T03:51:42.496Z,4.77
2023-05-05T03:52:09.609Z,4.28
2023-05-05T03:52:36.458Z,4.77
2023-05-05T03:52:57.032Z,5.63
2023-05-05T03:53:29.166Z,5.14
2023-05-05T03:54:02.016Z,5.99
2023-05-05T03:54:33.262Z,5.63
2023-05-05T03:55:06.611Z,6.48
2023-05-05T03:55:21.447Z,5.99
2023-05-05T03:55:42.868Z,6.85
2023-05-05T03:56:10.112Z,6.85
2023-05-05T03:56:36.747Z,6.48
2023-05-05T03:56:57.262Z,7.34
2023-05-05T03:57:29.012Z,7.34
2023-05-05T03:58:02.116Z,7.34
2023-05-05T03:58:33.203Z,7.34
2023-05-05T03:59:05.337Z,8.19
2023-05-05T03:59:21.526Z,7.34
2023-05-05T03:59:42.550Z,8.19
2023-05-05T04:00:10.627Z,8.56
2023-05-05T04:00:36.835Z,8.56
2023-05-05T04:00:57.512Z,8.56
2023-05-05T04:01:29.091Z,9.05
2023-05-05T04:02:01.919Z,9.54
2023-05-05T04:02:33.230Z,8.56
2023-05-05T04:03:05.275Z,9.91
2023-05-05T04:03:21.806Z,9.54
2023-05-05T04:03:42.648Z,9.91
2023-05-05T04:04:09.259Z,10.77
2023-05-05T04:04:36.768Z,9.91
2023-05-05T04:04:57.058Z,10.39
2023-05-05T04:05:29.410Z,11.25
2023-05-05T04:06:02.015Z,11.25
2023-05-05T04:06:33.435Z,11.62
2023-05-05T04:07:05.361Z,12.48
2023-05-05T04:07:21.477Z,12.97
2023-05-05T04:07:42.499Z,12.48
2023-05-05T04:08:09.715Z,13.33
2023-05-05T04:08:36.897Z,13.82
2023-05-05T04:08:57.207Z,14.31
2023-05-05T04:09:28.914Z,14.68
2023-05-05T04:10:03.368Z,15.53
2023-05-05T04:10:33.200Z,16.39
2023-05-05T04:11:05.291Z,17.25
2023-05-05T04:11:21.557Z,17.25
2023-05-05T04:11:42.668Z,18.11
2023-05-05T04:12:09.184Z,18.60
2023-05-05T04:12:36.754Z,18.11
2023-05-05T04:12:57.177Z,20.80
2023-05-05T04:13:29.040Z,20.31
2023-05-05T04:14:01.933Z,21.16
2023-05-05T04:14:33.181Z,22.02
2023-05-05T04:15:07.281Z,23.36
2023-05-05T04:15:22.047Z,23.85
2023-05-05T04:15:43.008Z,23.85
2023-05-05T04:16:09.185Z,24.22
2023-05-05T04:16:36.962Z,25.07
2023-05-05T04:16:57.101Z,25.07
2023-05-05T04:17:29.103Z,25.94
2023-05-05T04:18:01.769Z,26.42
2023-05-05T04:18:33.480Z,27.65
2023-05-05T04:19:05.261Z,28.14
2023-05-05T04:19:21.742Z,28.14
2023-05-05T04:19:42.502Z,27.65
2023-05-05T04:20:09.955Z,27.65
2023-05-05T04:20:36.610Z,27.65
2023-05-05T04:20:57.722Z,28.99
2023-05-05T04:21:29.002Z,28.99
2023-05-05T04:22:02.426Z,29.48
2023-05-05T04:22:33.181Z,29.85
2023-05-05T04:23:05.293Z,29.48
2023-05-05T04:23:21.529Z,29.48
2023-05-05T04:23:42.830Z,29.85
2023-05-05T04:24:09.727Z,30.34
2023-05-05T04:24:37.258Z,30.34
2023-05-05T04:24:57.079Z,30.70
2023-05-05T04:25:29.405Z,30.34
2023-05-05T04:26:01.570Z,30.70
2023-05-05T04:26:33.242Z,30.70
2023-05-05T04:27:05.323Z,30.70
2023-05-05T04:27:21.523Z,31.19
2023-05-05T04:27:42.742Z,31.19
2023-05-05T04:28:09.212Z,30.34
2023-05-05T04:28:37.193Z,30.70
2023-05-05T04:28:57.167Z,31.19
2023-05-05T04:29:28.951Z,31.56
2023-05-05T04:30:03.937Z,32.05
2023-05-05T04:30:33.415Z,32.05
2023-05-05T04:31:05.638Z,33.39
2023-05-05T04:31:37.475Z,33.76
2023-05-05T04:32:09.716Z,33.76
2023-05-05T04:32:36.875Z,35.48
2023-05-05T04:32:57.297Z,35.11
2023-05-05T04:33:29.215Z,36.82
2023-05-05T04:34:02.357Z,36.82
2023-05-05T04:34:33.161Z,38.53
2023-05-05T04:35:06.804Z,40.73
2023-05-05T04:35:21.545Z,41.96
2023-05-05T04:35:43.072Z,42.45
2023-05-05T04:36:09.117Z,45.02
2023-05-05T04:36:37.071Z,46.36
2023-05-05T04:36:57.068Z,48.93
2023-05-05T04:37:29.318Z,49.42
2023-05-05T04:38:01.994Z,50.65
2023-05-05T04:38:33.190Z,51.99
2023-05-05T04:39:05.695Z,52.48
2023-05-05T04:39:21.769Z,52.85
2023-05-05T04:39:42.765Z,52.48
2023-05-05T04:40:09.876Z,52.85
2023-05-05T04:40:37.353Z,54.56
2023-05-05T04:40:57.496Z,53.34
2023-05-05T04:41:30.188Z,51.99
2023-05-05T04:42:02.883Z,53.34
2023-05-05T04:42:33.272Z,55.41
2023-05-05T04:43:05.312Z,55.90
2023-05-05T04:43:21.617Z,55.90
2023-05-05T04:43:42.545Z,56.27
2023-05-05T04:44:09.177Z,58.11
2023-05-05T04:44:36.571Z,57.62
2023-05-05T04:44:57.222Z,56.76
2023-05-05T04:45:29.892Z,54.56
2023-05-05T04:46:02.777Z,54.56
2023-05-05T04:46:33.599Z,57.25
2023-05-05T04:47:05.429Z,60.19
2023-05-05T04:47:21.458Z,61.53
2023-05-05T04:47:42.647Z,62.39
2023-05-05T04:48:09.279Z,61.53
2023-05-05T04:48:36.605Z,61.53
2023-05-05T04:48:56.997Z,61.17
2023-05-05T04:49:29.217Z,60.19
2023-05-05T04:50:03.013Z,60.68
2023-05-05T04:50:33.351Z,63.73
2023-05-05T04:51:05.378Z,62.02
2023-05-05T04:51:21.451Z,60.19
2023-05-05T04:51:42.548Z,58.11
2023-05-05T04:52:09.313Z,57.25
2023-05-05T04:52:37.085Z,57.62
2023-05-05T04:52:57.094Z,58.48
2023-05-05T04:53:28.949Z,57.62
2023-05-05T04:54:02.080Z,61.53
2023-05-05T04:54:33.251Z,66.31
2023-05-05T04:55:07.019Z,71.07
2023-05-05T04:55:21.789Z,72.79
2023-05-05T04:55:42.952Z,74.14
2023-05-05T04:56:09.399Z,80.25
2023-05-05T04:56:37.280Z,81.97
2023-05-05T04:56:57.145Z,84.53
2023-05-05T04:57:28.920Z,85.88
2023-05-05T04:58:01.821Z,88.45
2023-05-05T04:58:33.388Z,92.36
2023-05-05T04:59:05.269Z,91.51
2023-05-05T04:59:37.112Z,94.07
2023-05-05T05:00:10.714Z,98.36
2023-05-05T05:00:36.713Z,98.85
2023-05-05T05:00:57.559Z,97.50
2023-05-05T05:01:29.139Z,97.99
2023-05-05T05:02:01.961Z,96.27
2023-05-05T05:02:33.286Z,97.50
2023-05-05T05:03:05.346Z,93.58
2023-05-05T05:03:37.569Z,80.62
2023-05-05T05:04:09.473Z,69.36
2023-05-05T05:04:36.681Z,68.02
2023-05-05T05:04:56.972Z,69.36
2023-05-05T05:05:29.667Z,68.51
2023-05-05T05:06:02.077Z,69.36
2023-05-05T05:06:33.339Z,70.71
2023-05-05T05:07:05.267Z,87.10
2023-05-05T05:07:37.335Z,110.96
2023-05-05T05:08:09.511Z,121.85
2023-05-05T05:08:36.554Z,118.78
2023-05-05T05:08:57.067Z,117.44
2023-05-05T05:09:29.202Z,127.10
2023-05-05T05:10:03.882Z,136.16
2023-05-05T05:10:33.267Z,135.67
2023-05-05T05:11:05.467Z,136.16
2023-05-05T05:11:37.383Z,137.51
2023-05-05T05:12:09.615Z,134.44
2023-05-05T05:12:36.908Z,131.88
2023-05-05T05:12:57.406Z,133.10
2023-05-05T05:13:29.199Z,138.73
2023-05-05T05:14:02.239Z,141.42
2023-05-05T05:14:33.400Z,142.64
2023-05-05T05:15:07.511Z,137.51
2023-05-05T05:15:37.303Z,129.68
2023-05-05T05:16:09.189Z,118.78
2023-05-05T05:16:36.874Z,115.73
2023-05-05T05:16:57.069Z,100.19
2023-05-05T05:17:28.984Z,87.96
2023-05-05T05:18:02.101Z,84.53
2023-05-05T05:18:33.147Z,86.73
2023-05-05T05:19:05.298Z,107.90
2023-05-05T05:19:37.277Z,137.02
2023-05-05T05:20:10.149Z,145.70
2023-05-05T05:20:37.506Z,147.41
2023-05-05T05:20:57.833Z,147.90
2023-05-05T05:21:29.224Z,147.90
2023-05-05T05:22:02.346Z,148.76
2023-05-05T05:22:33.211Z,149.98
2023-05-05T05:23:21.822Z,144.36
2023-05-05T05:23:42.922Z,120.13
2023-05-05T05:24:09.359Z,78.90
2023-05-05T05:24:36.576Z,87.96
2023-05-05T05:24:57.255Z,146.19
2023-05-05T05:25:29.796Z,164.78
2023-05-05T05:26:02.200Z,169.56
2023-05-05T05:26:33.270Z,174.33
2023-05-05T05:27:06.816Z,177.75
2023-05-05T05:27:37.260Z,182.53
2023-05-05T05:28:10.889Z,183.87
2023-05-05T05:28:37.380Z,183.50
2023-05-05T05:28:57.226Z,183.02
2023-05-05T05:29:29.185Z,184.73
2023-05-05T05:30:03.685Z,183.87
2023-05-05T05:30:39.193Z,185.22
2023-05-05T05:31:05.940Z,195.61
2023-05-05T05:31:37.532Z,201.24
2023-05-05T05:32:09.699Z,206.01
2023-05-05T05:32:36.792Z,208.22
2023-05-05T05:32:57.317Z,213.84
2023-05-05T05:33:29.204Z,215.56
2023-05-05T05:34:02.501Z,209.44
2023-05-05T05:34:33.395Z,212.49
2023-05-05T05:35:07.458Z,217.27
2023-05-05T05:35:37.492Z,222.53
2023-05-05T05:36:09.513Z,225.46
2023-05-05T05:36:36.867Z,223.75
2023-05-05T05:36:57.490Z,221.18
2023-05-05T05:37:29.241Z,218.61
2023-05-05T05:38:02.242Z,222.53
2023-05-05T05:38:33.413Z,232.07
2023-05-05T05:39:05.660Z,236.84
2023-05-05T05:39:37.285Z,241.61
2023-05-05T05:40:10.093Z,245.04
2023-05-05T05:40:36.954Z,245.52
2023-05-05T05:40:57.959Z,247.61
2023-05-05T05:41:29.178Z,249.81
2023-05-05T05:42:02.355Z,253.73
2023-05-05T05:42:33.604Z,257.15
2023-05-05T05:43:05.665Z,256.78
2023-05-05T05:43:37.546Z,258.49
2023-05-05T05:44:09.502Z,258.98
2023-05-05T05:44:36.828Z,258.49
2023-05-05T05:44:57.292Z,258.49
2023-05-05T05:45:30.153Z,255.93
2023-05-05T05:46:02.452Z,256.78
2023-05-05T05:46:33.428Z,250.30
2023-05-05T05:47:05.666Z,235.98
2023-05-05T05:47:37.339Z,229.87
2023-05-05T05:48:09.577Z,232.44
2023-05-05T05:48:36.863Z,230.73
2023-05-05T05:48:57.142Z,222.90
2023-05-05T05:49:29.114Z,218.12
2023-05-05T05:50:04.238Z,210.78
2023-05-05T05:50:33.267Z,206.01
2023-05-05T05:51:05.585Z,204.66
2023-05-05T05:51:37.355Z,203.44
2023-05-05T05:52:09.568Z,199.53
2023-05-05T05:52:37.166Z,192.56
2023-05-05T05:52:57.193Z,170.05
2023-05-05T05:53:29.204Z,158.30
2023-05-05T05:54:02.478Z,169.07
2023-05-05T05:54:33.163Z,110.59
2023-05-05T05:55:07.018Z,204.30
2023-05-05T05:55:37.277Z,183.87
2023-05-05T05:56:09.646Z,141.42
2023-05-05T05:56:36.933Z,181.30
2023-05-05T05:56:57.231Z,125.27
2023-05-05T05:57:29.400Z,127.47
2023-05-05T05:58:02.022Z,125.76
2023-05-05T05:58:33.445Z,217.76
2023-05-05T05:59:05.896Z,229.01
2023-05-05T05:59:37.205Z,182.53
2023-05-05T06:00:10.572Z,149.61
2023-05-05T06:00:37.239Z,148.27
2023-05-05T06:00:57.462Z,114.02
2023-05-05T06:01:29.131Z,278.07
2023-05-05T06:02:02.020Z,239.41
2023-05-05T06:02:33.484Z,268.52
2023-05-05T06:03:05.703Z,271.46
2023-05-05T06:03:37.491Z,275.01
2023-05-05T06:04:09.788Z,270.24
2023-05-05T06:04:36.962Z,272.81
2023-05-05T06:04:57.226Z,270.61
2023-05-05T06:05:29.778Z,273.30
2023-05-05T06:06:02.236Z,272.32